Hlavní strana
METAR-TAF:

METAR-TAF

Letiště :

Letiště Kiruna

Kiruna, Švédsko

zeměpisná šířka: 67-49N, zeměpisná délka: 020-20E, výška: 452 m

Aktuální stav počasí

Zpráva byla vytvořena před 28 minutami, v 18:20 UTC
Jihozápadní vítr 9 kt
Teplota 2°C
Vlhkost vzduchu 87%
Tlak 977 hPa
Viditelnost 10 km a více

METAR: ESNQ 221820Z AUTO 23009KT 9999 NCD 02/M00 Q0977

Čas: 20:48 (18:48 UTC)

Předpověď počasí

Zpráva byla vytvořena před 1 hodinou a 18 minutami, v 17:30 UTC
Předpověď platná od 22 v 18 UTC do 22 v 22 UTC
Jihojihozápadní vítr 5 kt
Viditelnost 10 km a více
Polojasno ve výšce 2000 ft
Oblačno až skoro zataženo ve výšce 4000 ft
Pravděpodobnost 40%
od 22 v 18 UTC do 22 v 22 UTC
Viditelnost: 4000 m
ve výšce 1200 ft
slabé sněžení

TAF: ESNQ 221730Z 2218/2222 20005KT 9999 SCT020 BKN040 PROB40 2218/2222 4000 -SN VV012

Stav a předpovědi počasí z více než 4 000 letišť (zprávy METAR a TAF).

Červené a žluté tečky na mapě představují dostupné meteorologické stanice.

Když kurzor umístíte na tečku, zobrazí se název stanice.

Pak kliknutím zobrazíte stav a předpověď počasí.

Chcete-li změnit mapu, kliknutím na zelené tlačítko se znaménkem +mapu přiblížíte, kliknutím na zelené tlačítko se znaménkem – mapu oddálíte a kliknutím na zelené šipky přejdete na sousední mapy.


METAR-TAF: